createdAt,value
2023-12-05T00:00:10.556Z,16.25
2023-12-05T00:02:38.325Z,16.67
2023-12-05T00:05:08.675Z,18.58
2023-12-05T00:07:36.554Z,20.00
2023-12-05T00:10:04.468Z,16.10
2023-12-05T00:12:32.174Z,16.17
2023-12-05T00:14:59.780Z,15.30
2023-12-05T00:17:27.935Z,18.42
2023-12-05T00:19:55.569Z,15.65
2023-12-05T00:22:25.116Z,17.67
2023-12-05T00:24:52.900Z,17.27
2023-12-05T00:27:20.545Z,20.80
2023-12-05T00:29:48.972Z,21.33
2023-12-05T00:32:16.725Z,22.77
2023-12-05T00:34:44.774Z,21.60
2023-12-05T00:37:12.459Z,22.35
2023-12-05T00:39:41.765Z,22.65
2023-12-05T00:42:10.106Z,26.23
2023-12-05T00:44:37.722Z,22.38
2023-12-05T00:47:07.234Z,20.00
2023-12-05T00:49:37.445Z,23.95
2023-12-05T00:52:05.380Z,25.50
2023-12-05T00:54:33.150Z,22.80
2023-12-05T00:57:02.659Z,20.63
2023-12-05T00:59:30.282Z,26.07
2023-12-05T01:01:58.030Z,24.98
2023-12-05T01:04:27.028Z,25.67
2023-12-05T01:06:54.778Z,25.17
2023-12-05T01:09:25.222Z,26.70
2023-12-05T01:11:53.309Z,27.57
2023-12-05T01:14:22.454Z,27.05
2023-12-05T01:16:51.276Z,24.60
2023-12-05T01:19:19.234Z,27.48
2023-12-05T01:21:46.011Z,26.33
2023-12-05T01:24:14.047Z,26.87
2023-12-05T01:26:41.947Z,25.17
2023-12-05T01:29:09.970Z,26.30
2023-12-05T01:31:39.463Z,24.80
2023-12-05T01:34:07.586Z,24.05
2023-12-05T01:36:35.322Z,21.47
2023-12-05T01:39:03.042Z,23.25
2023-12-05T01:41:30.813Z,23.50
2023-12-05T01:43:58.940Z,21.58
2023-12-05T01:46:26.599Z,19.95
2023-12-05T01:48:55.828Z,21.57
2023-12-05T01:51:23.627Z,21.63
2023-12-05T01:53:51.610Z,21.25
2023-12-05T01:56:19.811Z,22.48
2023-12-05T01:58:47.597Z,23.30
2023-12-05T02:01:16.781Z,19.70
2023-12-05T02:03:45.198Z,22.02
2023-12-05T02:06:14.595Z,24.13
2023-12-05T02:08:43.505Z,23.10
2023-12-05T02:11:11.360Z,22.10
2023-12-05T02:13:39.859Z,23.03
2023-12-05T02:16:10.143Z,19.02
2023-12-05T02:18:42.678Z,21.88
2023-12-05T02:21:12.588Z,22.23
2023-12-05T02:23:52.030Z,22.77
2023-12-05T02:26:24.673Z,20.60
2023-12-05T02:28:58.229Z,21.02
2023-12-05T02:31:25.967Z,19.67
2023-12-05T02:33:54.304Z,21.30
2023-12-05T02:36:24.560Z,17.58
2023-12-05T02:38:59.072Z,18.50
2023-12-05T02:41:30.195Z,15.85
2023-12-05T02:44:01.229Z,15.55
2023-12-05T02:46:29.445Z,15.10
2023-12-05T02:48:58.343Z,15.43
2023-12-05T02:51:26.154Z,14.63
2023-12-05T02:53:53.773Z,18.77
2023-12-05T02:56:21.496Z,17.50
2023-12-05T02:58:49.148Z,17.10
2023-12-05T03:01:18.150Z,16.42
2023-12-05T03:03:45.944Z,15.27
2023-12-05T03:06:13.776Z,15.18
2023-12-05T03:08:41.460Z,18.48
2023-12-05T03:11:10.129Z,15.55
2023-12-05T03:13:40.079Z,13.73
2023-12-05T03:16:08.177Z,13.37
2023-12-05T03:18:37.288Z,15.15
2023-12-05T03:21:06.783Z,13.90
2023-12-05T03:23:34.824Z,13.80
2023-12-05T03:26:03.103Z,13.15
2023-12-05T03:28:30.809Z,15.97
2023-12-05T03:30:58.732Z,13.48
2023-12-05T03:33:26.441Z,16.33
2023-12-05T03:35:55.491Z,13.75
2023-12-05T03:38:23.163Z,14.95
2023-12-05T03:40:50.788Z,13.80
2023-12-05T03:43:18.518Z,11.85
2023-12-05T03:45:46.203Z,13.45
2023-12-05T03:48:14.401Z,11.02
2023-12-05T03:50:42.258Z,10.25
2023-12-05T03:53:11.415Z,12.87
2023-12-05T03:55:39.027Z,12.02
2023-12-05T03:58:06.948Z,11.45
2023-12-05T04:00:34.575Z,11.77
2023-12-05T04:03:03.216Z,13.15
2023-12-05T04:05:31.042Z,13.87
2023-12-05T04:07:58.706Z,13.60
2023-12-05T04:10:28.279Z,11.27
2023-12-05T04:12:56.935Z,12.95
2023-12-05T04:15:27.002Z,12.40
2023-12-05T04:17:54.697Z,14.77
2023-12-05T04:20:23.123Z,14.15
2023-12-05T04:22:50.812Z,12.77
2023-12-05T04:25:18.520Z,13.70
2023-12-05T04:27:47.605Z,16.42
2023-12-05T04:30:15.649Z,17.77
2023-12-05T04:32:43.395Z,15.00
2023-12-05T04:35:11.535Z,17.10
2023-12-05T04:37:41.220Z,15.50
2023-12-05T04:40:10.475Z,14.63
2023-12-05T04:42:38.238Z,16.20
2023-12-05T04:45:08.280Z,12.10
2023-12-05T04:47:35.918Z,13.52
2023-12-05T04:50:04.280Z,15.15
2023-12-05T04:52:32.908Z,14.55
2023-12-05T04:55:00.699Z,12.73
2023-12-05T04:57:29.700Z,13.80
2023-12-05T04:59:57.822Z,12.75
2023-12-05T05:02:27.030Z,11.20
2023-12-05T05:04:54.767Z,11.35
2023-12-05T05:07:22.910Z,12.97
2023-12-05T05:09:50.836Z,10.68
2023-12-05T05:12:18.576Z,13.07
2023-12-05T05:14:46.304Z,14.13
2023-12-05T05:17:13.953Z,10.40
2023-12-05T05:19:43.132Z,12.80
2023-12-05T05:22:11.309Z,11.30
2023-12-05T05:24:39.002Z,11.82
2023-12-05T05:27:06.931Z,10.00
2023-12-05T05:29:34.803Z,11.77
2023-12-05T05:32:02.987Z,9.77
2023-12-05T05:34:30.965Z,12.75
2023-12-05T05:37:00.105Z,11.32
2023-12-05T05:39:27.751Z,14.95
2023-12-05T05:41:55.432Z,12.68
2023-12-05T05:44:23.556Z,11.80
2023-12-05T05:46:51.146Z,12.57
2023-12-05T05:49:18.965Z,13.23
2023-12-05T05:51:46.857Z,12.73
2023-12-05T05:54:16.939Z,13.18
2023-12-05T05:56:44.657Z,14.53
2023-12-05T05:59:12.426Z,14.50
2023-12-05T06:01:40.074Z,13.45
2023-12-05T06:04:07.830Z,13.98
2023-12-05T06:06:34.702Z,14.00
2023-12-05T06:09:02.343Z,15.70
2023-12-05T06:11:31.435Z,15.95
2023-12-05T06:13:59.181Z,14.23
2023-12-05T06:16:27.349Z,13.05
2023-12-05T06:18:55.504Z,13.07
2023-12-05T06:21:23.448Z,16.50
2023-12-05T06:23:51.045Z,15.27
2023-12-05T06:26:20.415Z,16.00
2023-12-05T06:28:49.541Z,17.15
2023-12-05T06:31:18.638Z,14.20
2023-12-05T06:33:47.218Z,16.80
2023-12-05T06:36:15.858Z,16.00
2023-12-05T06:38:43.587Z,21.00
2023-12-05T06:41:12.340Z,13.98
2023-12-05T06:43:40.096Z,18.60
2023-12-05T06:46:09.934Z,19.40
2023-12-05T06:48:37.778Z,17.63
2023-12-05T06:51:06.034Z,19.48
2023-12-05T06:53:37.297Z,16.90
2023-12-05T06:56:07.661Z,17.42
2023-12-05T06:58:35.386Z,19.50
2023-12-05T07:01:03.021Z,17.02
2023-12-05T07:03:33.676Z,19.65
2023-12-05T07:06:03.115Z,18.75
2023-12-05T07:08:30.977Z,16.88
2023-12-05T07:10:58.996Z,18.30
2023-12-05T07:13:26.640Z,19.90
2023-12-05T07:15:54.390Z,20.05
2023-12-05T07:18:22.432Z,21.48
2023-12-05T07:20:52.068Z,21.10
2023-12-05T07:23:19.742Z,20.40
2023-12-05T07:25:47.437Z,20.27
2023-12-05T07:28:15.203Z,24.17
2023-12-05T07:30:42.894Z,23.27
2023-12-05T07:33:11.262Z,20.83
2023-12-05T07:35:39.399Z,21.67
2023-12-05T07:38:09.103Z,21.95
2023-12-05T07:40:37.009Z,22.05
2023-12-05T07:43:04.704Z,23.13
2023-12-05T07:45:32.482Z,23.45
2023-12-05T07:48:00.347Z,24.37
2023-12-05T07:50:28.258Z,25.85
2023-12-05T07:52:55.948Z,23.25
2023-12-05T07:55:24.997Z,25.95
2023-12-05T07:57:52.740Z,29.75
2023-12-05T08:00:20.931Z,27.03
2023-12-05T08:02:49.263Z,28.15
2023-12-05T08:05:17.158Z,26.63
2023-12-05T08:07:44.968Z,27.35
2023-12-05T08:10:13.004Z,30.73
2023-12-05T08:12:42.172Z,31.87
2023-12-05T08:15:10.421Z,34.65
2023-12-05T08:17:38.366Z,33.78
2023-12-05T08:20:06.948Z,33.78
2023-12-05T08:22:34.684Z,27.83
2023-12-05T08:25:02.456Z,27.80
2023-12-05T08:27:30.332Z,29.38
2023-12-05T08:29:59.376Z,32.85
2023-12-05T08:32:27.141Z,34.42
2023-12-05T08:34:56.072Z,33.63
2023-12-05T08:37:24.353Z,31.07
2023-12-05T08:39:52.120Z,33.53
2023-12-05T08:42:20.476Z,36.38
2023-12-05T08:44:48.559Z,31.52
2023-12-05T08:47:18.611Z,32.73
2023-12-05T08:49:46.319Z,27.55
2023-12-05T08:52:14.065Z,36.63
2023-12-05T08:54:41.872Z,33.20
2023-12-05T08:57:09.577Z,29.10
2023-12-05T08:59:37.218Z,32.35
2023-12-05T09:02:05.148Z,32.00
2023-12-05T09:04:34.449Z,28.95
2023-12-05T09:07:03.302Z,29.95
2023-12-05T09:09:31.865Z,28.98
2023-12-05T09:12:00.622Z,28.13
2023-12-05T09:14:28.329Z,31.87
2023-12-05T09:16:56.700Z,34.75
2023-12-05T09:19:24.666Z,30.52
2023-12-05T09:21:54.369Z,30.10
2023-12-05T09:24:22.310Z,24.58
2023-12-05T09:26:49.989Z,24.70
2023-12-05T09:29:17.626Z,26.85
2023-12-05T09:31:45.566Z,22.42
2023-12-05T09:34:13.297Z,20.70
2023-12-05T09:36:41.043Z,23.40
2023-12-05T09:39:11.866Z,19.57
2023-12-05T09:41:42.701Z,24.88
2023-12-05T09:44:11.127Z,21.88
2023-12-05T09:46:47.538Z,22.30
2023-12-05T09:49:18.513Z,18.17
2023-12-05T09:51:47.543Z,20.17
2023-12-05T09:54:17.511Z,20.15
2023-12-05T09:56:45.374Z,20.42
2023-12-05T09:59:13.267Z,20.45
2023-12-05T10:01:43.018Z,17.85
2023-12-05T10:04:13.351Z,14.93
2023-12-05T10:06:41.900Z,17.17
2023-12-05T10:09:10.750Z,17.23
2023-12-05T10:11:40.530Z,16.35
2023-12-05T10:14:08.623Z,19.08
2023-12-05T10:16:36.580Z,19.53
2023-12-05T10:19:04.482Z,18.20
2023-12-05T10:21:33.247Z,16.35
2023-12-05T10:24:00.945Z,16.50
2023-12-05T10:26:29.391Z,17.70
2023-12-05T10:28:58.718Z,12.93
2023-12-05T10:31:26.418Z,14.35
2023-12-05T10:34:05.172Z,10.85
2023-12-05T10:36:32.945Z,11.48
2023-12-05T10:39:00.668Z,10.13
2023-12-05T10:41:31.413Z,10.60
2023-12-05T10:44:02.746Z,10.27
2023-12-05T10:46:30.619Z,12.85
2023-12-05T10:48:58.632Z,10.38
2023-12-05T10:51:26.923Z,11.52
2023-12-05T10:53:55.876Z,13.10
2023-12-05T10:56:24.374Z,11.38
2023-12-05T10:58:54.127Z,8.93
2023-12-05T11:01:23.894Z,11.93
2023-12-05T11:03:52.550Z,7.93
2023-12-05T11:06:20.385Z,9.40
2023-12-05T11:08:49.711Z,9.25
2023-12-05T11:11:18.111Z,9.13
2023-12-05T11:13:47.476Z,8.45
2023-12-05T11:16:19.371Z,8.02
2023-12-05T11:18:53.817Z,8.32
2023-12-05T11:21:31.029Z,7.72
2023-12-05T11:24:04.591Z,7.70
2023-12-05T11:26:48.050Z,8.02
2023-12-05T11:29:22.536Z,7.57
2023-12-05T11:31:54.241Z,6.45
2023-12-05T11:34:40.097Z,6.82
2023-12-05T11:37:25.608Z,9.10
2023-12-05T11:39:53.542Z,7.50
2023-12-05T11:42:21.665Z,7.78
2023-12-05T11:44:49.379Z,7.57
2023-12-05T11:47:18.226Z,8.40
2023-12-05T11:49:55.350Z,7.97
2023-12-05T11:52:23.818Z,8.00
2023-12-05T11:54:54.164Z,9.65
2023-12-05T11:57:22.828Z,9.57
2023-12-05T11:59:52.515Z,10.88
2023-12-05T12:02:20.659Z,10.27
2023-12-05T12:04:48.488Z,11.15
2023-12-05T12:07:17.552Z,11.35
2023-12-05T12:09:45.308Z,11.68
2023-12-05T12:12:13.285Z,12.05
2023-12-05T12:14:43.737Z,11.17
2023-12-05T12:17:12.852Z,11.88
2023-12-05T12:19:40.812Z,9.52
2023-12-05T12:22:09.081Z,10.65
2023-12-05T12:24:39.071Z,10.25
2023-12-05T12:27:08.435Z,9.37
2023-12-05T12:29:37.019Z,8.68
2023-12-05T12:32:10.707Z,9.30
2023-12-05T12:34:39.237Z,9.30
2023-12-05T12:37:18.090Z,8.38
2023-12-05T12:39:51.830Z,8.38
2023-12-05T12:42:20.198Z,8.35
2023-12-05T12:44:47.922Z,9.27
2023-12-05T12:47:17.130Z,11.25
2023-12-05T12:49:45.148Z,8.97
2023-12-05T12:52:13.491Z,9.38
2023-12-05T12:54:44.946Z,11.70
2023-12-05T12:57:14.268Z,7.53
2023-12-05T12:59:42.359Z,8.23
2023-12-05T13:02:10.210Z,11.43
2023-12-05T13:04:38.525Z,8.55
2023-12-05T13:07:06.682Z,10.38
2023-12-05T13:09:34.755Z,8.88
2023-12-05T13:12:03.089Z,8.93
2023-12-05T13:14:32.260Z,8.20
2023-12-05T13:16:59.941Z,7.70
2023-12-05T13:19:30.908Z,9.00
2023-12-05T13:21:58.901Z,8.35
2023-12-05T13:24:27.385Z,7.93
2023-12-05T13:26:55.476Z,7.67
2023-12-05T13:29:23.081Z,7.57
2023-12-05T13:31:52.082Z,7.93
2023-12-05T13:34:19.986Z,12.40
2023-12-05T13:36:47.830Z,10.45
2023-12-05T13:39:16.850Z,10.03
2023-12-05T13:41:44.915Z,8.23
2023-12-05T13:44:12.757Z,8.02
2023-12-05T13:46:40.547Z,8.70
2023-12-05T13:49:10.212Z,7.72
2023-12-05T13:51:38.024Z,8.73
2023-12-05T13:54:05.793Z,7.35
2023-12-05T13:56:33.842Z,7.18
2023-12-05T13:59:01.468Z,10.05
2023-12-05T14:01:30.940Z,7.40
2023-12-05T14:03:59.149Z,7.47
2023-12-05T14:06:28.344Z,7.38
2023-12-05T14:08:56.017Z,9.98
2023-12-05T14:11:24.197Z,13.68
2023-12-05T14:13:51.946Z,11.75
2023-12-05T14:16:19.606Z,10.97
2023-12-05T14:18:47.764Z,10.57
2023-12-05T14:21:15.549Z,8.20
2023-12-05T14:23:44.552Z,7.65
2023-12-05T14:26:12.746Z,6.78
2023-12-05T14:28:40.846Z,5.50
2023-12-05T14:31:08.828Z,6.40
2023-12-05T14:33:37.224Z,8.57
2023-12-05T14:36:08.258Z,8.50
2023-12-05T14:38:36.507Z,9.20
2023-12-05T14:41:05.922Z,6.43
2023-12-05T14:43:33.529Z,8.10
2023-12-05T14:46:01.201Z,5.40
2023-12-05T14:48:28.985Z,5.73
2023-12-05T14:50:56.665Z,4.75
2023-12-05T14:53:24.351Z,5.10
2023-12-05T14:55:53.375Z,6.72
2023-12-05T14:58:22.791Z,6.30
2023-12-05T15:00:50.704Z,7.23
2023-12-05T15:03:19.306Z,7.60
2023-12-05T15:05:47.371Z,6.25
2023-12-05T15:08:15.129Z,8.45
2023-12-05T15:10:42.960Z,8.23
2023-12-05T15:13:10.904Z,5.83
2023-12-05T15:15:40.062Z,7.13
2023-12-05T15:18:07.861Z,10.55
2023-12-05T15:20:35.796Z,6.47
2023-12-05T15:23:04.717Z,6.53
2023-12-05T15:25:32.706Z,7.87
2023-12-05T15:28:00.343Z,8.95
2023-12-05T15:30:28.100Z,9.73
2023-12-05T15:32:59.197Z,10.90
2023-12-05T15:35:26.884Z,14.13
2023-12-05T15:37:54.568Z,14.40
2023-12-05T15:40:23.670Z,11.60
2023-12-05T15:42:51.377Z,11.25
2023-12-05T15:45:19.106Z,11.80
2023-12-05T15:47:47.233Z,15.07
2023-12-05T15:50:18.702Z,16.13
2023-12-05T15:52:47.184Z,12.65
2023-12-05T15:55:15.784Z,15.38
2023-12-05T15:57:44.286Z,16.88
2023-12-05T16:00:12.698Z,14.50
2023-12-05T16:02:43.558Z,17.50
2023-12-05T16:05:11.910Z,22.55
2023-12-05T16:07:43.120Z,23.27
2023-12-05T16:10:11.213Z,21.23
2023-12-05T16:12:38.944Z,18.38
2023-12-05T16:15:07.103Z,16.97
2023-12-05T16:17:34.884Z,17.27
2023-12-05T16:20:02.694Z,16.92
2023-12-05T16:22:31.605Z,17.42
2023-12-05T16:25:03.495Z,18.58
2023-12-05T16:27:31.261Z,20.83
2023-12-05T16:29:59.473Z,26.05
2023-12-05T16:32:29.966Z,17.13
2023-12-05T16:34:57.690Z,19.48
2023-12-05T16:37:25.480Z,25.05
2023-12-05T16:39:53.210Z,19.93
2023-12-05T16:42:22.304Z,18.95
2023-12-05T16:44:50.022Z,20.48
2023-12-05T16:47:17.893Z,18.15
2023-12-05T16:49:46.941Z,20.48
2023-12-05T16:52:14.798Z,20.10
2023-12-05T16:54:45.992Z,17.40
2023-12-05T16:57:13.722Z,15.18
2023-12-05T16:59:42.813Z,17.88
2023-12-05T17:02:10.787Z,15.60
2023-12-05T17:04:39.320Z,16.45
2023-12-05T17:07:07.226Z,19.87
2023-12-05T17:09:35.270Z,15.43
2023-12-05T17:12:03.019Z,19.30
2023-12-05T17:14:32.859Z,15.07
2023-12-05T17:17:06.585Z,17.95
2023-12-05T17:19:34.520Z,17.23
2023-12-05T17:22:02.370Z,19.35
2023-12-05T17:24:30.080Z,15.90
2023-12-05T17:26:57.952Z,16.88
2023-12-05T17:29:25.800Z,17.87
2023-12-05T17:31:53.565Z,16.33
2023-12-05T17:34:22.736Z,20.92
2023-12-05T17:36:50.759Z,22.93
2023-12-05T17:39:19.245Z,20.27
2023-12-05T17:41:47.251Z,20.55
2023-12-05T17:44:15.017Z,19.33
2023-12-05T17:46:43.375Z,17.08
2023-12-05T17:49:11.557Z,12.47
2023-12-05T17:51:40.948Z,15.82
2023-12-05T17:54:08.860Z,12.18
2023-12-05T17:56:36.891Z,15.87
2023-12-05T17:59:05.171Z,14.45
2023-12-05T18:01:33.595Z,13.45
2023-12-05T18:04:02.047Z,12.77
2023-12-05T18:06:30.513Z,12.27
2023-12-05T18:09:00.279Z,14.47
2023-12-05T18:11:29.930Z,12.93
2023-12-05T18:13:57.696Z,13.13
2023-12-05T18:16:25.378Z,11.82
2023-12-05T18:18:53.337Z,12.20
2023-12-05T18:21:21.237Z,13.30
2023-12-05T18:23:50.743Z,14.57
2023-12-05T18:26:19.865Z,12.65
2023-12-05T18:28:48.884Z,14.90
2023-12-05T18:31:16.599Z,11.02
2023-12-05T18:33:44.385Z,13.32
2023-12-05T18:36:13.549Z,12.00
2023-12-05T18:38:41.877Z,12.85
2023-12-05T18:41:10.370Z,10.43
2023-12-05T18:43:40.236Z,12.88
2023-12-05T18:46:08.849Z,14.35
2023-12-05T18:48:36.737Z,14.20
2023-12-05T18:51:04.744Z,11.38
2023-12-05T18:53:32.445Z,12.53
2023-12-05T18:56:00.492Z,14.95
2023-12-05T18:58:28.403Z,9.15
2023-12-05T19:00:57.702Z,11.85
2023-12-05T19:03:25.588Z,15.55
2023-12-05T19:05:53.301Z,14.73
2023-12-05T19:08:21.091Z,15.73
2023-12-05T19:10:48.857Z,18.42
2023-12-05T19:13:16.564Z,11.63
2023-12-05T19:15:45.026Z,16.13
2023-12-05T19:18:15.412Z,15.52
2023-12-05T19:20:43.669Z,18.53
2023-12-05T19:23:11.766Z,14.63
2023-12-05T19:25:40.546Z,15.00
2023-12-05T19:28:09.438Z,17.88
2023-12-05T19:30:47.213Z,14.48
2023-12-05T19:33:17.741Z,16.73
2023-12-05T19:35:47.786Z,18.67
2023-12-05T19:38:15.526Z,16.98
2023-12-05T19:40:43.777Z,17.88
2023-12-05T19:43:13.029Z,20.20
2023-12-05T19:45:40.915Z,18.43
2023-12-05T19:48:09.984Z,18.05
2023-12-05T19:50:40.779Z,12.85
2023-12-05T19:53:08.817Z,14.25
2023-12-05T19:55:38.499Z,18.00
2023-12-05T19:58:06.189Z,15.67
2023-12-05T20:00:33.950Z,16.58
2023-12-05T20:03:02.724Z,12.80
2023-12-05T20:05:30.398Z,13.70
2023-12-05T20:07:59.775Z,13.90
2023-12-05T20:10:27.863Z,14.43
2023-12-05T20:12:55.553Z,14.30
2023-12-05T20:15:23.237Z,11.15
2023-12-05T20:20:36.463Z,19.25
2023-12-05T20:23:05.614Z,17.70
2023-12-05T20:25:33.266Z,14.02
2023-12-05T20:28:01.470Z,13.25
2023-12-05T20:30:29.218Z,16.23
2023-12-05T20:32:57.184Z,11.27
2023-12-05T20:35:25.533Z,13.03
2023-12-05T20:37:53.244Z,11.93
2023-12-05T20:40:22.416Z,14.63
2023-12-05T20:42:50.231Z,16.85
2023-12-05T20:45:18.138Z,13.05
2023-12-05T20:47:46.120Z,12.47
2023-12-05T20:50:14.642Z,12.70
2023-12-05T20:52:42.739Z,12.85
2023-12-05T20:55:10.548Z,14.55
2023-12-05T20:57:39.889Z,14.77
2023-12-05T21:00:09.059Z,14.95
2023-12-05T21:02:36.963Z,12.52
2023-12-05T21:05:05.639Z,12.30
2023-12-05T21:07:33.787Z,12.10
2023-12-05T21:10:01.927Z,11.07
2023-12-05T21:12:29.669Z,10.88
2023-12-05T21:14:58.881Z,5.15
2023-12-05T21:17:28.349Z,6.10
2023-12-05T21:19:56.729Z,6.20
2023-12-05T21:22:24.877Z,5.25
2023-12-05T21:24:52.596Z,5.07
2023-12-05T21:27:20.483Z,5.38
2023-12-05T21:29:48.332Z,6.60
2023-12-05T21:32:17.299Z,8.10
2023-12-05T21:34:45.309Z,6.95
2023-12-05T21:37:13.682Z,8.77
2023-12-05T21:39:41.304Z,6.30
2023-12-05T21:42:09.887Z,10.05
2023-12-05T21:44:40.108Z,12.27
2023-12-05T21:47:07.762Z,8.93
2023-12-05T21:49:37.343Z,9.10
2023-12-05T21:52:07.440Z,10.47
2023-12-05T21:54:35.487Z,8.60
2023-12-05T21:57:04.938Z,7.60
2023-12-05T21:59:32.636Z,9.25
2023-12-05T22:02:00.278Z,7.07
2023-12-05T22:07:15.004Z,10.02
2023-12-05T22:09:42.872Z,10.85
2023-12-05T22:12:11.053Z,8.80
2023-12-05T22:14:39.546Z,11.77
2023-12-05T22:17:09.941Z,7.63
2023-12-05T22:19:38.223Z,8.60
2023-12-05T22:22:06.424Z,9.05
2023-12-05T22:24:35.420Z,10.65
2023-12-05T22:27:03.192Z,11.30
2023-12-05T22:29:31.127Z,9.60
2023-12-05T22:31:59.075Z,10.35
2023-12-05T22:34:27.110Z,11.52
2023-12-05T22:36:55.229Z,12.35
2023-12-05T22:39:23.605Z,9.18
2023-12-05T22:41:53.200Z,13.77
2023-12-05T22:44:21.135Z,10.25
2023-12-05T22:46:48.772Z,11.55
2023-12-05T22:49:16.540Z,9.90
2023-12-05T22:51:44.786Z,9.82
2023-12-05T22:54:12.516Z,14.20
2023-12-05T22:56:40.826Z,12.20
2023-12-05T22:59:10.199Z,12.65
2023-12-05T23:01:37.868Z,10.45
2023-12-05T23:04:05.593Z,12.13
2023-12-05T23:06:33.411Z,15.53
2023-12-05T23:09:01.490Z,10.07
2023-12-05T23:11:29.058Z,15.60
2023-12-05T23:13:56.973Z,12.63
2023-12-05T23:16:25.960Z,13.07
2023-12-05T23:18:53.647Z,14.63
2023-12-05T23:21:21.933Z,12.85
2023-12-05T23:23:49.589Z,12.52
2023-12-05T23:26:17.794Z,13.48
2023-12-05T23:28:45.683Z,13.27
2023-12-05T23:31:13.425Z,12.47
2023-12-05T23:33:42.522Z,14.32
2023-12-05T23:36:14.757Z,14.13
2023-12-05T23:38:42.519Z,17.80
2023-12-05T23:41:10.357Z,18.52
2023-12-05T23:43:38.136Z,16.77
2023-12-05T23:46:06.474Z,13.40
2023-12-05T23:48:34.362Z,15.60
2023-12-05T23:51:03.630Z,13.45
2023-12-05T23:53:31.251Z,13.90
2023-12-05T23:55:58.918Z,18.53
2023-12-05T23:58:26.583Z,13.43
